sensor_id;sensor_type;location;lat;lon;timestamp;pressure;altitude;pressure_sealevel;temperature;humidity
64354;BME280;50681;53.334;-6.536;2022-11-20T00:00:55;99951.75;;;9.76;100.00
64354;BME280;50681;53.334;-6.536;2022-11-20T00:03:21;99935.25;;;9.78;100.00
64354;BME280;50681;53.334;-6.536;2022-11-20T00:05:47;99940.75;;;9.73;100.00
64354;BME280;50681;53.334;-6.536;2022-11-20T00:08:12;99931.16;;;9.66;100.00
64354;BME280;50681;53.334;-6.536;2022-11-20T00:10:39;99934.97;;;9.79;100.00
64354;BME280;50681;53.334;-6.536;2022-11-20T00:13:06;99944.75;;;9.75;100.00
64354;BME280;50681;53.334;-6.536;2022-11-20T00:15:31;99956.53;;;10.21;100.00
64354;BME280;50681;53.334;-6.536;2022-11-20T00:17:57;99955.31;;;9.71;100.00
64354;BME280;50681;53.334;-6.536;2022-11-20T00:20:23;99943.34;;;9.64;100.00
64354;BME280;50681;53.334;-6.536;2022-11-20T00:22:49;99949.53;;;9.64;100.00
64354;BME280;50681;53.334;-6.536;2022-11-20T00:25:14;99942.94;;;9.56;100.00
64354;BME280;50681;53.334;-6.536;2022-11-20T00:27:40;99944.91;;;9.51;100.00
64354;BME280;50681;53.334;-6.536;2022-11-20T00:30:06;99954.03;;;9.69;100.00
64354;BME280;50681;53.334;-6.536;2022-11-20T00:32:31;99956.31;;;9.62;100.00
64354;BME280;50681;53.334;-6.536;2022-11-20T00:34:57;99948.94;;;9.53;100.00
64354;BME280;50681;53.334;-6.536;2022-11-20T00:37:22;99946.72;;;9.55;100.00
64354;BME280;50681;53.334;-6.536;2022-11-20T00:39:48;99937.13;;;9.49;100.00
64354;BME280;50681;53.334;-6.536;2022-11-20T00:42:13;99941.09;;;9.38;100.00
64354;BME280;50681;53.334;-6.536;2022-11-20T00:44:39;99946.50;;;9.38;100.00
64354;BME280;50681;53.334;-6.536;2022-11-20T00:47:04;99959.97;;;9.38;100.00
64354;BME280;50681;53.334;-6.536;2022-11-20T00:49:30;99958.72;;;9.30;100.00
64354;BME280;50681;53.334;-6.536;2022-11-20T00:51:55;99951.56;;;9.25;100.00
64354;BME280;50681;53.334;-6.536;2022-11-20T00:54:21;99959.81;;;9.29;100.00
64354;BME280;50681;53.334;-6.536;2022-11-20T00:56:46;99955.34;;;9.24;100.00
64354;BME280;50681;53.334;-6.536;2022-11-20T00:59:12;99945.00;;;9.12;100.00
64354;BME280;50681;53.334;-6.536;2022-11-20T01:01:37;99961.00;;;9.23;100.00
64354;BME280;50681;53.334;-6.536;2022-11-20T01:04:03;99940.59;;;9.03;100.00
64354;BME280;50681;53.334;-6.536;2022-11-20T01:06:31;99957.63;;;9.31;100.00
64354;BME280;50681;53.334;-6.536;2022-11-20T01:08:59;99946.34;;;9.29;100.00
64354;BME280;50681;53.334;-6.536;2022-11-20T01:11:31;99945.56;;;9.29;100.00
64354;BME280;50681;53.334;-6.536;2022-11-20T01:13:58;99939.84;;;9.16;100.00
64354;BME280;50681;53.334;-6.536;2022-11-20T01:16:33;99943.31;;;9.36;100.00
64354;BME280;50681;53.334;-6.536;2022-11-20T01:19:00;99948.97;;;9.81;100.00
64354;BME280;50681;53.334;-6.536;2022-11-20T01:21:28;99950.16;;;10.03;100.00
64354;BME280;50681;53.334;-6.536;2022-11-20T01:23:54;99939.59;;;8.99;100.00
64354;BME280;50681;53.334;-6.536;2022-11-20T01:26:22;99926.63;;;9.01;100.00
64354;BME280;50681;53.334;-6.536;2022-11-20T01:28:49;99958.19;;;9.14;100.00
64354;BME280;50681;53.334;-6.536;2022-11-20T01:31:16;99957.34;;;9.00;100.00
64354;BME280;50681;53.334;-6.536;2022-11-20T01:33:43;99940.16;;;8.95;100.00
64354;BME280;50681;53.334;-6.536;2022-11-20T01:36:10;99956.88;;;9.11;100.00
64354;BME280;50681;53.334;-6.536;2022-11-20T01:38:35;99957.34;;;9.00;100.00
64354;BME280;50681;53.334;-6.536;2022-11-20T01:41:01;99936.97;;;8.74;100.00
64354;BME280;50681;53.334;-6.536;2022-11-20T01:43:26;99946.88;;;8.79;100.00
64354;BME280;50681;53.334;-6.536;2022-11-20T01:46:08;99969.47;;;9.16;100.00
64354;BME280;50681;53.334;-6.536;2022-11-20T01:49:00;99972.16;;;9.16;100.00
64354;BME280;50681;53.334;-6.536;2022-11-20T01:51:50;99967.53;;;9.03;100.00
64354;BME280;50681;53.334;-6.536;2022-11-20T01:54:40;99967.53;;;9.03;100.00
64354;BME280;50681;53.334;-6.536;2022-11-20T01:57:10;99959.97;;;9.05;100.00
64354;BME280;50681;53.334;-6.536;2022-11-20T01:59:43;99950.72;;;9.11;100.00
64354;BME280;50681;53.334;-6.536;2022-11-20T02:02:09;99953.56;;;8.62;100.00
64354;BME280;50681;53.334;-6.536;2022-11-20T02:04:35;99961.13;;;8.99;100.00
64354;BME280;50681;53.334;-6.536;2022-11-20T02:07:02;99965.53;;;9.27;100.00
64354;BME280;50681;53.334;-6.536;2022-11-20T02:09:30;99953.56;;;9.01;100.00
64354;BME280;50681;53.334;-6.536;2022-11-20T02:11:56;99982.28;;;9.05;100.00
64354;BME280;50681;53.334;-6.536;2022-11-20T02:14:23;99976.03;;;9.10;100.00
64354;BME280;50681;53.334;-6.536;2022-11-20T02:16:49;99974.28;;;9.52;100.00
64354;BME280;50681;53.334;-6.536;2022-11-20T02:19:27;99944.75;;;9.28;100.00
64354;BME280;50681;53.334;-6.536;2022-11-20T02:27:40;99948.97;;;9.01;100.00
64354;BME280;50681;53.334;-6.536;2022-11-20T02:30:07;99969.97;;;9.18;100.00
64354;BME280;50681;53.334;-6.536;2022-11-20T02:32:37;99970.78;;;9.19;100.00
64354;BME280;50681;53.334;-6.536;2022-11-20T02:37:57;99964.19;;;8.73;100.00
64354;BME280;50681;53.334;-6.536;2022-11-20T02:40:23;99959.81;;;8.96;100.00
64354;BME280;50681;53.334;-6.536;2022-11-20T02:42:52;99946.88;;;8.79;100.00
64354;BME280;50681;53.334;-6.536;2022-11-20T02:45:18;99955.75;;;8.60;100.00
64354;BME280;50681;53.334;-6.536;2022-11-20T02:47:43;99955.47;;;8.81;100.00
64354;BME280;50681;53.334;-6.536;2022-11-20T02:50:09;99938.28;;;8.58;100.00
64354;BME280;50681;53.334;-6.536;2022-11-20T02:52:35;99974.16;;;8.53;100.00
64354;BME280;50681;53.334;-6.536;2022-11-20T02:55:00;99966.59;;;8.55;100.00
64354;BME280;50681;53.334;-6.536;2022-11-20T02:57:26;99945.00;;;8.36;100.00
64354;BME280;50681;53.334;-6.536;2022-11-20T02:59:51;99960.69;;;8.53;100.00
64354;BME280;50681;53.334;-6.536;2022-11-20T03:02:16;99965.28;;;8.72;100.00
64354;BME280;50681;53.334;-6.536;2022-11-20T03:04:42;99975.75;;;8.73;100.00
64354;BME280;50681;53.334;-6.536;2022-11-20T03:07:08;99977.13;;;8.71;100.00
64354;BME280;50681;53.334;-6.536;2022-11-20T03:09:34;99955.41;;;8.43;100.00
64354;BME280;50681;53.334;-6.536;2022-11-20T03:11:59;99962.22;;;8.59;100.00
64354;BME280;50681;53.334;-6.536;2022-11-20T03:14:24;99971.47;;;8.53;100.00
64354;BME280;50681;53.334;-6.536;2022-11-20T03:16:50;99948.72;;;8.40;100.00
64354;BME280;50681;53.334;-6.536;2022-11-20T03:19:15;99962.72;;;8.61;100.00
64354;BME280;50681;53.334;-6.536;2022-11-20T03:21:41;99977.34;;;8.55;100.00
64354;BME280;50681;53.334;-6.536;2022-11-20T03:24:06;99955.06;;;8.49;100.00
64354;BME280;50681;53.334;-6.536;2022-11-20T03:26:32;99964.91;;;8.59;100.00
64354;BME280;50681;53.334;-6.536;2022-11-20T03:28:59;99927.59;;;8.52;100.00
64354;BME280;50681;53.334;-6.536;2022-11-20T03:31:33;99920.34;;;8.53;100.00
64354;BME280;50681;53.334;-6.536;2022-11-20T03:33:59;99923.25;;;8.32;100.00
64354;BME280;50681;53.334;-6.536;2022-11-20T03:36:26;99949.34;;;8.56;100.00
64354;BME280;50681;53.334;-6.536;2022-11-20T03:38:56;99949.78;;;8.63;100.00
64354;BME280;50681;53.334;-6.536;2022-11-20T03:41:24;99942.59;;;8.34;100.00
64354;BME280;50681;53.334;-6.536;2022-11-20T03:44:02;99945.50;;;8.62;100.00
64354;BME280;50681;53.334;-6.536;2022-11-20T03:46:29;99928.19;;;8.25;100.00
64354;BME280;50681;53.334;-6.536;2022-11-20T03:48:55;99943.38;;;8.35;100.00
64354;BME280;50681;53.334;-6.536;2022-11-20T03:51:23;99952.22;;;8.41;100.00
64354;BME280;50681;53.334;-6.536;2022-11-20T03:53:50;99963.25;;;8.39;100.00
64354;BME280;50681;53.334;-6.536;2022-11-20T03:56:18;99958.38;;;8.41;100.00
64354;BME280;50681;53.334;-6.536;2022-11-20T03:58:43;99930.59;;;8.27;100.00
64354;BME280;50681;53.334;-6.536;2022-11-20T04:01:11;99932.44;;;8.31;100.00
64354;BME280;50681;53.334;-6.536;2022-11-20T04:03:40;99937.00;;;8.31;100.00
64354;BME280;50681;53.334;-6.536;2022-11-20T04:06:08;99946.16;;;8.30;100.00
64354;BME280;50681;53.334;-6.536;2022-11-20T04:08:36;99918.47;;;8.29;100.00
64354;BME280;50681;53.334;-6.536;2022-11-20T04:11:11;99936.97;;;8.55;100.00
64354;BME280;50681;53.334;-6.536;2022-11-20T04:13:38;99940.56;;;8.26;100.00
64354;BME280;50681;53.334;-6.536;2022-11-20T04:16:04;99929.94;;;8.16;100.00
64354;BME280;50681;53.334;-6.536;2022-11-20T04:18:30;99920.63;;;7.84;100.00
64354;BME280;50681;53.334;-6.536;2022-11-20T04:20:59;99925.63;;;8.15;100.00
64354;BME280;50681;53.334;-6.536;2022-11-20T04:23:33;99948.56;;;8.31;100.00
64354;BME280;50681;53.334;-6.536;2022-11-20T04:26:07;99956.06;;;8.34;100.00
64354;BME280;50681;53.334;-6.536;2022-11-20T04:28:36;99962.53;;;8.33;100.00
64354;BME280;50681;53.334;-6.536;2022-11-20T04:31:05;99956.50;;;8.42;100.00
64354;BME280;50681;53.334;-6.536;2022-11-20T04:33:32;99964.81;;;8.21;100.00
64354;BME280;50681;53.334;-6.536;2022-11-20T04:36:06;99960.78;;;8.43;100.00
64354;BME280;50681;53.334;-6.536;2022-11-20T04:38:32;99945.31;;;8.10;100.00
64354;BME280;50681;53.334;-6.536;2022-11-20T04:41:04;99959.31;;;8.31;100.00
64354;BME280;50681;53.334;-6.536;2022-11-20T04:43:30;99952.72;;;7.99;100.00
64354;BME280;50681;53.334;-6.536;2022-11-20T04:45:59;99973.22;;;8.38;100.00
64354;BME280;50681;53.334;-6.536;2022-11-20T04:48:25;99970.84;;;8.13;100.00
64354;BME280;50681;53.334;-6.536;2022-11-20T04:51:10;99974.97;;;8.48;100.00
64354;BME280;50681;53.334;-6.536;2022-11-20T04:53:36;99953.16;;;8.06;100.00
64354;BME280;50681;53.334;-6.536;2022-11-20T04:56:11;99949.22;;;8.42;100.00
64354;BME280;50681;53.334;-6.536;2022-11-20T04:58:38;99928.22;;;8.01;100.00
64354;BME280;50681;53.334;-6.536;2022-11-20T05:01:06;99974.59;;;8.36;100.00
64354;BME280;50681;53.334;-6.536;2022-11-20T05:03:31;99986.34;;;8.21;100.00
64354;BME280;50681;53.334;-6.536;2022-11-20T05:06:00;99988.91;;;8.31;100.00
64354;BME280;50681;53.334;-6.536;2022-11-20T05:08:26;99987.50;;;8.15;100.00
64354;BME280;50681;53.334;-6.536;2022-11-20T05:10:53;99987.94;;;8.22;100.00
64354;BME280;50681;53.334;-6.536;2022-11-20T05:13:18;99980.06;;;8.06;100.00
64354;BME280;50681;53.334;-6.536;2022-11-20T05:15:55;99968.34;;;8.41;100.00
64354;BME280;50681;53.334;-6.536;2022-11-20T05:18:21;99985.66;;;8.10;100.00
64354;BME280;50681;53.334;-6.536;2022-11-20T05:20:46;99965.63;;;7.97;100.00
64354;BME280;50681;53.334;-6.536;2022-11-20T05:23:11;100009.31;;;8.08;100.00
64354;BME280;50681;53.334;-6.536;2022-11-20T05:25:37;99980.22;;;7.91;100.00
64354;BME280;50681;53.334;-6.536;2022-11-20T05:28:02;99978.56;;;7.95;100.00
64354;BME280;50681;53.334;-6.536;2022-11-20T05:30:28;99975.72;;;7.86;100.00
64354;BME280;50681;53.334;-6.536;2022-11-20T05:32:56;99999.28;;;8.19;100.00
64354;BME280;50681;53.334;-6.536;2022-11-20T05:35:22;99973.06;;;8.05;100.00
64354;BME280;50681;53.334;-6.536;2022-11-20T05:37:48;99970.19;;;7.97;100.00
64354;BME280;50681;53.334;-6.536;2022-11-20T05:40:22;99983.81;;;8.30;100.00
64354;BME280;50681;53.334;-6.536;2022-11-20T05:42:48;99988.63;;;8.08;100.00
64354;BME280;50681;53.334;-6.536;2022-11-20T05:45:13;99992.94;;;8.09;100.00
64354;BME280;50681;53.334;-6.536;2022-11-20T05:47:41;99971.56;;;8.18;100.00
64354;BME280;50681;53.334;-6.536;2022-11-20T05:50:06;99998.31;;;8.09;100.00
64354;BME280;50681;53.334;-6.536;2022-11-20T05:52:32;99974.31;;;7.89;100.00
64354;BME280;50681;53.334;-6.536;2022-11-20T05:54:57;99974.44;;;7.78;100.00
64354;BME280;50681;53.334;-6.536;2022-11-20T05:57:23;99987.25;;;7.87;100.00
64354;BME280;50681;53.334;-6.536;2022-11-20T06:00:20;99996.16;;;8.31;100.00
64354;BME280;50681;53.334;-6.536;2022-11-20T06:02:46;99973.91;;;7.76;100.00
64354;BME280;50681;53.334;-6.536;2022-11-20T06:05:29;99979.47;;;8.09;100.00
64354;BME280;50681;53.334;-6.536;2022-11-20T06:07:54;99976.84;;;7.80;100.00
64354;BME280;50681;53.334;-6.536;2022-11-20T06:10:21;99947.81;;;7.82;100.00
64354;BME280;50681;53.334;-6.536;2022-11-20T06:12:46;99961.69;;;7.89;100.00
64354;BME280;50681;53.334;-6.536;2022-11-20T06:15:12;99919.13;;;7.72;100.00
64354;BME280;50681;53.334;-6.536;2022-11-20T06:17:37;99930.44;;;7.69;100.00
64354;BME280;50681;53.334;-6.536;2022-11-20T06:20:03;99947.22;;;7.85;100.00
64354;BME280;50681;53.334;-6.536;2022-11-20T06:22:28;99945.63;;;7.84;100.00
64354;BME280;50681;53.334;-6.536;2022-11-20T06:24:54;99941.59;;;7.82;100.00
64354;BME280;50681;53.334;-6.536;2022-11-20T06:27:19;99936.97;;;7.63;100.00
64354;BME280;50681;53.334;-6.536;2022-11-20T06:29:45;99923.22;;;7.70;100.00
64354;BME280;50681;53.334;-6.536;2022-11-20T06:32:10;99936.03;;;7.78;100.00
64354;BME280;50681;53.334;-6.536;2022-11-20T06:38:10;99922.91;;;7.71;100.00
64354;BME280;50681;53.334;-6.536;2022-11-20T06:43:42;99931.63;;;7.87;100.00
64354;BME280;50681;53.334;-6.536;2022-11-20T06:46:10;99913.41;;;8.03;100.00
64354;BME280;50681;53.334;-6.536;2022-11-20T06:48:36;99945.72;;;7.98;100.00
64354;BME280;50681;53.334;-6.536;2022-11-20T06:51:05;99926.28;;;8.06;100.00
64354;BME280;50681;53.334;-6.536;2022-11-20T06:53:31;99929.16;;;7.91;100.00
64354;BME280;50681;53.334;-6.536;2022-11-20T06:55:57;99934.53;;;7.91;100.00
64354;BME280;50681;53.334;-6.536;2022-11-20T06:58:25;99922.28;;;7.79;100.00
64354;BME280;50681;53.334;-6.536;2022-11-20T07:00:51;99917.47;;;7.76;100.00
64354;BME280;50681;53.334;-6.536;2022-11-20T07:03:16;99934.06;;;7.84;100.00
64354;BME280;50681;53.334;-6.536;2022-11-20T07:05:42;99929.66;;;7.69;100.00
64354;BME280;50681;53.334;-6.536;2022-11-20T07:08:12;99957.91;;;8.15;100.00
64354;BME280;50681;53.334;-6.536;2022-11-20T07:10:38;99939.53;;;7.73;100.00
64354;BME280;50681;53.334;-6.536;2022-11-20T07:13:03;99937.69;;;7.74;100.00
64354;BME280;50681;53.334;-6.536;2022-11-20T07:15:29;99937.38;;;7.75;100.00
64354;BME280;50681;53.334;-6.536;2022-11-20T07:18:05;99915.13;;;7.94;100.00
64354;BME280;50681;53.334;-6.536;2022-11-20T07:20:31;99915.53;;;7.58;100.00
64354;BME280;50681;53.334;-6.536;2022-11-20T07:22:57;99920.47;;;7.75;100.00
64354;BME280;50681;53.334;-6.536;2022-11-20T07:25:23;99901.88;;;7.54;100.00
64354;BME280;50681;53.334;-6.536;2022-11-20T07:27:49;99931.38;;;7.59;100.00
64354;BME280;50681;53.334;-6.536;2022-11-20T07:30:16;99938.75;;;7.73;100.00
64354;BME280;50681;53.334;-6.536;2022-11-20T07:32:41;99943.09;;;7.93;100.00
64354;BME280;50681;53.334;-6.536;2022-11-20T07:35:07;99932.03;;;7.46;100.00
64354;BME280;50681;53.334;-6.536;2022-11-20T07:37:35;99964.72;;;7.83;100.00
64354;BME280;50681;53.334;-6.536;2022-11-20T07:40:01;99944.66;;;7.45;100.00
64354;BME280;50681;53.334;-6.536;2022-11-20T07:42:26;99962.84;;;7.54;100.00
64354;BME280;50681;53.334;-6.536;2022-11-20T07:44:52;99957.94;;;7.61;100.00
64354;BME280;50681;53.334;-6.536;2022-11-20T07:47:17;99929.53;;;7.55;100.00
64354;BME280;50681;53.334;-6.536;2022-11-20T07:49:50;99943.19;;;8.07;100.00
64354;BME280;50681;53.334;-6.536;2022-11-20T07:52:15;99945.91;;;7.83;100.00
64354;BME280;50681;53.334;-6.536;2022-11-20T07:54:41;99960.78;;;7.99;100.00
64354;BME280;50681;53.334;-6.536;2022-11-20T07:57:06;99951.09;;;7.98;100.00
64354;BME280;50681;53.334;-6.536;2022-11-20T07:59:31;99955.34;;;8.04;100.00
64354;BME280;50681;53.334;-6.536;2022-11-20T08:02:13;99949.13;;;8.28;100.00
64354;BME280;50681;53.334;-6.536;2022-11-20T08:04:39;99942.41;;;8.06;100.00
64354;BME280;50681;53.334;-6.536;2022-11-20T08:07:04;99948.75;;;8.16;100.00
64354;BME280;50681;53.334;-6.536;2022-11-20T08:09:30;99945.25;;;8.15;100.00
64354;BME280;50681;53.334;-6.536;2022-11-20T08:11:55;99909.63;;;8.04;100.00
64354;BME280;50681;53.334;-6.536;2022-11-20T08:14:39;99928.13;;;8.30;100.00
64354;BME280;50681;53.334;-6.536;2022-11-20T08:17:05;99925.25;;;8.02;100.00
64354;BME280;50681;53.334;-6.536;2022-11-20T08:19:30;99933.91;;;8.18;100.00
64354;BME280;50681;53.334;-6.536;2022-11-20T08:21:55;99923.22;;;8.13;100.00
64354;BME280;50681;53.334;-6.536;2022-11-20T08:24:21;99950.16;;;8.32;100.00
64354;BME280;50681;53.334;-6.536;2022-11-20T08:26:47;99914.88;;;8.15;100.00
64354;BME280;50681;53.334;-6.536;2022-11-20T08:29:13;99946.25;;;8.44;100.00
64354;BME280;50681;53.334;-6.536;2022-11-20T08:31:38;99927.94;;;8.46;100.00
64354;BME280;50681;53.334;-6.536;2022-11-20T08:34:34;99958.94;;;9.01;100.00
64354;BME280;50681;53.334;-6.536;2022-11-20T08:37:01;99938.38;;;8.72;100.00
64354;BME280;50681;53.334;-6.536;2022-11-20T08:39:29;99936.47;;;8.91;100.00
64354;BME280;50681;53.334;-6.536;2022-11-20T08:41:55;99956.03;;;8.78;100.00
64354;BME280;50681;53.334;-6.536;2022-11-20T08:44:20;99965.56;;;8.89;100.00
64354;BME280;50681;53.334;-6.536;2022-11-20T08:46:46;99954.66;;;9.00;100.00
64354;BME280;50681;53.334;-6.536;2022-11-20T08:49:13;99956.31;;;8.95;100.00
64354;BME280;50681;53.334;-6.536;2022-11-20T08:51:39;99960.16;;;9.08;100.00
64354;BME280;50681;53.334;-6.536;2022-11-20T08:54:05;99947.50;;;8.90;100.00
64354;BME280;50681;53.334;-6.536;2022-11-20T08:56:33;99963.41;;;9.24;100.00
64354;BME280;50681;53.334;-6.536;2022-11-20T08:58:59;99951.28;;;9.08;100.00
64354;BME280;50681;53.334;-6.536;2022-11-20T09:01:25;99957.28;;;9.38;100.00
64354;BME280;50681;53.334;-6.536;2022-11-20T09:03:55;99957.50;;;9.55;100.00
64354;BME280;50681;53.334;-6.536;2022-11-20T09:06:27;99960.28;;;9.50;100.00
64354;BME280;50681;53.334;-6.536;2022-11-20T09:08:55;99954.91;;;9.50;100.00
64354;BME280;50681;53.334;-6.536;2022-11-20T09:11:22;99955.88;;;9.07;100.00
64354;BME280;50681;53.334;-6.536;2022-11-20T09:13:48;99952.06;;;9.41;100.00
64354;BME280;50681;53.334;-6.536;2022-11-20T09:16:14;99944.47;;;9.30;100.00
64354;BME280;50681;53.334;-6.536;2022-11-20T09:18:40;99938.25;;;9.15;100.00
64354;BME280;50681;53.334;-6.536;2022-11-20T09:21:10;99931.97;;;9.67;100.00
64354;BME280;50681;53.334;-6.536;2022-11-20T09:23:37;99909.56;;;9.38;100.00
64354;BME280;50681;53.334;-6.536;2022-11-20T09:26:03;99940.19;;;9.43;100.00
64354;BME280;50681;53.334;-6.536;2022-11-20T09:28:30;99941.16;;;9.66;100.00
64354;BME280;50681;53.334;-6.536;2022-11-20T09:30:56;99919.66;;;9.47;100.00
64354;BME280;50681;53.334;-6.536;2022-11-20T09:33:22;99921.31;;;9.29;100.00
64354;BME280;50681;53.334;-6.536;2022-11-20T09:35:47;99940.00;;;9.39;100.00
64354;BME280;50681;53.334;-6.536;2022-11-20T09:38:13;99944.72;;;9.61;100.00
64354;BME280;50681;53.334;-6.536;2022-11-20T09:40:55;99932.19;;;9.84;100.00
64354;BME280;50681;53.334;-6.536;2022-11-20T09:43:37;99913.88;;;9.53;100.00
64354;BME280;50681;53.334;-6.536;2022-11-20T09:46:11;99945.56;;;9.90;100.00
64354;BME280;50681;53.334;-6.536;2022-11-20T09:54:19;99945.56;;;10.18;100.00
64354;BME280;50681;53.334;-6.536;2022-11-20T09:57:00;99911.38;;;10.27;100.00
64354;BME280;50681;53.334;-6.536;2022-11-20T10:01:59;99926.97;;;10.30;100.00
64354;BME280;50681;53.334;-6.536;2022-11-20T10:04:26;99922.97;;;10.41;100.00
64354;BME280;50681;53.334;-6.536;2022-11-20T10:09:35;99918.06;;;10.43;100.00
64354;BME280;50681;53.334;-6.536;2022-11-20T10:12:13;99931.34;;;10.54;100.00
64354;BME280;50681;53.334;-6.536;2022-11-20T10:31:34;99902.25;;;10.73;100.00
64354;BME280;50681;53.334;-6.536;2022-11-20T10:34:06;99881.38;;;10.42;100.00
64354;BME280;50681;53.334;-6.536;2022-11-20T10:36:42;99887.72;;;10.61;100.00
64354;BME280;50681;53.334;-6.536;2022-11-20T10:41:59;99888.06;;;10.45;100.00
64354;BME280;50681;53.334;-6.536;2022-11-20T10:44:29;99910.06;;;11.21;100.00
64354;BME280;50681;53.334;-6.536;2022-11-20T10:47:17;99887.66;;;10.52;100.00
64354;BME280;50681;53.334;-6.536;2022-11-20T10:49:53;99899.69;;;10.91;100.00
64354;BME280;50681;53.334;-6.536;2022-11-20T10:55:34;99916.34;;;11.39;100.00
64354;BME280;50681;53.334;-6.536;2022-11-20T10:58:13;99922.63;;;10.57;100.00
64354;BME280;50681;53.334;-6.536;2022-11-20T11:00:42;99894.88;;;10.65;100.00
64354;BME280;50681;53.334;-6.536;2022-11-20T11:03:26;99937.38;;;11.19;100.00
64354;BME280;50681;53.334;-6.536;2022-11-20T11:06:35;99945.72;;;11.09;100.00
64354;BME280;50681;53.334;-6.536;2022-11-20T11:09:16;99933.19;;;11.13;100.00
64354;BME280;50681;53.334;-6.536;2022-11-20T11:11:56;99927.66;;;11.18;100.00
64354;BME280;50681;53.334;-6.536;2022-11-20T11:14:22;99942.78;;;10.96;100.00
64354;BME280;50681;53.334;-6.536;2022-11-20T11:17:17;99954.94;;;11.30;100.00
64354;BME280;50681;53.334;-6.536;2022-11-20T11:19:43;99941.78;;;10.92;100.00
64354;BME280;50681;53.334;-6.536;2022-11-20T11:22:16;99938.47;;;10.95;100.00
64354;BME280;50681;53.334;-6.536;2022-11-20T11:24:52;99932.78;;;10.97;100.00
64354;BME280;50681;53.334;-6.536;2022-11-20T11:27:17;99953.34;;;10.47;100.00
64354;BME280;50681;53.334;-6.536;2022-11-20T11:29:44;99938.78;;;10.71;100.00
64354;BME280;50681;53.334;-6.536;2022-11-20T11:32:18;99950.25;;;10.77;100.00
64354;BME280;50681;53.334;-6.536;2022-11-20T11:35:02;99953.44;;;10.79;100.00
64354;BME280;50681;53.334;-6.536;2022-11-20T11:37:36;99940.72;;;10.56;100.00
64354;BME280;50681;53.334;-6.536;2022-11-20T11:40:04;99964.34;;;10.51;100.00
64354;BME280;50681;53.334;-6.536;2022-11-20T11:42:30;99972.53;;;10.04;100.00
64354;BME280;50681;53.334;-6.536;2022-11-20T11:44:59;99964.94;;;10.20;100.00
64354;BME280;50681;53.334;-6.536;2022-11-20T11:55:39;99935.53;;;10.83;100.00
64354;BME280;50681;53.334;-6.536;2022-11-20T12:00:35;99945.72;;;11.09;100.00
64354;BME280;50681;53.334;-6.536;2022-11-20T12:03:16;99942.59;;;10.93;100.00
64354;BME280;50681;53.334;-6.536;2022-11-20T12:05:47;99941.19;;;11.18;100.00
64354;BME280;50681;53.334;-6.536;2022-11-20T12:11:03;99942.53;;;11.07;100.00
64354;BME280;50681;53.334;-6.536;2022-11-20T12:15:59;99946.22;;;10.88;100.00
64354;BME280;50681;53.334;-6.536;2022-11-20T12:18:25;99950.34;;;11.08;100.00
64354;BME280;50681;53.334;-6.536;2022-11-20T12:26:39;99955.50;;;10.96;100.00
64354;BME280;50681;53.334;-6.536;2022-11-20T12:34:44;99985.13;;;11.55;100.00
64354;BME280;50681;53.334;-6.536;2022-11-20T12:37:36;99966.66;;;11.49;100.00
64354;BME280;50681;53.334;-6.536;2022-11-20T12:43:20;99970.25;;;11.67;100.00
64354;BME280;50681;53.334;-6.536;2022-11-20T12:46:30;99940.28;;;11.54;100.00
64354;BME280;50681;53.334;-6.536;2022-11-20T12:57:39;99934.25;;;11.57;100.00
64354;BME280;50681;53.334;-6.536;2022-11-20T13:02:46;99967.66;;;11.61;100.00
64354;BME280;50681;53.334;-6.536;2022-11-20T13:05:31;99956.59;;;11.72;100.00
64354;BME280;50681;53.334;-6.536;2022-11-20T13:08:00;99963.03;;;11.30;100.00
64354;BME280;50681;53.334;-6.536;2022-11-20T13:13:35;99959.34;;;11.26;100.00
64354;BME280;50681;53.334;-6.536;2022-11-20T13:16:33;99923.06;;;11.41;100.00
64354;BME280;50681;53.334;-6.536;2022-11-20T13:19:03;99964.63;;;11.31;100.00
64354;BME280;50681;53.334;-6.536;2022-11-20T13:24:30;99946.22;;;11.33;100.00
64354;BME280;50681;53.334;-6.536;2022-11-20T13:27:18;99954.03;;;11.35;100.00
64354;BME280;50681;53.334;-6.536;2022-11-20T13:29:47;99979.50;;;11.43;100.00
64354;BME280;50681;53.334;-6.536;2022-11-20T13:32:24;99968.47;;;11.62;100.00
64354;BME280;50681;53.334;-6.536;2022-11-20T13:34:52;99979.53;;;11.83;100.00
64354;BME280;50681;53.334;-6.536;2022-11-20T13:37:36;99966.63;;;11.71;100.00
64354;BME280;50681;53.334;-6.536;2022-11-20T13:42:46;99994.31;;;11.77;100.00
64354;BME280;50681;53.334;-6.536;2022-11-20T13:45:27;99966.84;;;11.84;100.00
64354;BME280;50681;53.334;-6.536;2022-11-20T13:47:54;99996.38;;;11.71;100.00
64354;BME280;50681;53.334;-6.536;2022-11-20T13:50:38;99986.84;;;12.05;100.00
64354;BME280;50681;53.334;-6.536;2022-11-20T13:53:42;99993.44;;;11.90;100.00
64354;BME280;50681;53.334;-6.536;2022-11-20T13:58:59;100005.31;;;12.03;100.00
64354;BME280;50681;53.334;-6.536;2022-11-20T14:01:29;99982.47;;;11.96;100.00
64354;BME280;50681;53.334;-6.536;2022-11-20T14:04:05;99984.44;;;12.04;100.00
64354;BME280;50681;53.334;-6.536;2022-11-20T14:06:40;99977.81;;;12.28;100.00
64354;BME280;50681;53.334;-6.536;2022-11-20T14:09:11;99988.00;;;11.82;100.00
64354;BME280;50681;53.334;-6.536;2022-11-20T14:11:46;100013.97;;;11.91;100.00
64354;BME280;50681;53.334;-6.536;2022-11-20T14:14:20;100020.38;;;11.73;100.00
64354;BME280;50681;53.334;-6.536;2022-11-20T14:16:46;100008.06;;;11.58;100.00
64354;BME280;50681;53.334;-6.536;2022-11-20T14:22:23;100018.69;;;11.31;100.00
64354;BME280;50681;53.334;-6.536;2022-11-20T14:25:00;100023.84;;;11.65;100.00
64354;BME280;50681;53.334;-6.536;2022-11-20T14:27:26;100012.78;;;11.07;100.00
64354;BME280;50681;53.334;-6.536;2022-11-20T14:29:52;100025.28;;;11.39;100.00
64354;BME280;50681;53.334;-6.536;2022-11-20T14:32:20;100000.44;;;11.60;100.00
64354;BME280;50681;53.334;-6.536;2022-11-20T14:34:48;100020.41;;;11.27;100.00
64354;BME280;50681;53.334;-6.536;2022-11-20T14:37:24;100006.22;;;11.44;100.00
64354;BME280;50681;53.334;-6.536;2022-11-20T14:39:56;100024.81;;;11.23;100.00
64354;BME280;50681;53.334;-6.536;2022-11-20T14:42:26;99999.91;;;11.26;100.00
64354;BME280;50681;53.334;-6.536;2022-11-20T14:44:54;100015.38;;;11.35;100.00